createdAt,value
2023-05-19T00:00:34.558Z,59.91
2023-05-19T00:03:03.337Z,60.54
2023-05-19T00:05:31.737Z,59.83
2023-05-19T00:08:00.960Z,60.61
2023-05-19T00:10:31.629Z,60.04
2023-05-19T00:13:00.484Z,60.49
2023-05-19T00:15:30.382Z,60.23
2023-05-19T00:17:58.955Z,60.35
2023-05-19T00:20:27.060Z,60.32
2023-05-19T00:22:55.098Z,60.56
2023-05-19T00:25:26.007Z,60.32
2023-05-19T00:27:54.023Z,60.60
2023-05-19T00:30:22.913Z,60.28
2023-05-19T00:32:52.584Z,60.45
2023-05-19T00:35:21.720Z,60.17
2023-05-19T00:37:49.500Z,60.12
2023-05-19T00:40:17.652Z,60.94
2023-05-19T00:42:46.599Z,60.44
2023-05-19T00:45:14.393Z,60.35
2023-05-19T00:47:42.273Z,60.73
2023-05-19T00:50:11.950Z,60.69
2023-05-19T00:52:39.769Z,60.59
2023-05-19T00:55:11.120Z,60.50
2023-05-19T00:57:39.184Z,61.06
2023-05-19T01:00:11.228Z,60.87
2023-05-19T01:02:40.036Z,60.20
2023-05-19T01:05:08.690Z,61.32
2023-05-19T01:07:38.357Z,61.11
2023-05-19T01:10:06.902Z,60.44
2023-05-19T01:12:34.813Z,60.43
2023-05-19T01:15:03.436Z,60.85
2023-05-19T01:17:36.766Z,60.68
2023-05-19T01:20:11.057Z,61.02
2023-05-19T01:22:59.006Z,60.57
2023-05-19T01:25:52.870Z,60.79
2023-05-19T01:28:44.727Z,60.71
2023-05-19T01:31:14.222Z,61.23
2023-05-19T01:33:42.984Z,60.73
2023-05-19T01:36:12.941Z,60.85
2023-05-19T01:38:41.333Z,60.92
2023-05-19T01:41:09.566Z,61.49
2023-05-19T01:43:37.641Z,61.16
2023-05-19T01:46:06.404Z,62.21
2023-05-19T01:48:39.868Z,62.02
2023-05-19T01:51:07.618Z,62.08
2023-05-19T01:53:36.111Z,62.22
2023-05-19T01:56:07.677Z,62.13
2023-05-19T01:58:42.052Z,61.94
2023-05-19T02:01:12.588Z,62.17
2023-05-19T02:04:05.031Z,62.69
2023-05-19T02:06:40.179Z,62.22
2023-05-19T02:09:11.421Z,62.31
2023-05-19T02:11:46.330Z,61.92
2023-05-19T02:14:17.297Z,61.90
2023-05-19T02:16:46.794Z,62.35
2023-05-19T02:19:27.181Z,61.98
2023-05-19T02:21:55.041Z,62.61
2023-05-19T02:24:25.799Z,62.45
2023-05-19T02:26:54.485Z,62.45
2023-05-19T02:29:22.466Z,62.18
2023-05-19T02:31:50.403Z,63.07
2023-05-19T02:34:18.231Z,62.95
2023-05-19T02:36:49.746Z,63.00
2023-05-19T02:39:17.629Z,63.10
2023-05-19T02:41:45.503Z,62.98
2023-05-19T02:44:13.264Z,62.80
2023-05-19T02:46:41.146Z,63.26
2023-05-19T02:49:08.935Z,63.65
2023-05-19T02:51:36.714Z,63.35
2023-05-19T02:54:07.338Z,63.69
2023-05-19T02:56:35.099Z,63.03
2023-05-19T02:59:02.878Z,63.83
2023-05-19T03:01:32.739Z,63.79
2023-05-19T03:04:00.654Z,63.46
2023-05-19T03:06:29.465Z,64.45
2023-05-19T03:08:57.240Z,64.25
2023-05-19T03:11:26.443Z,64.31
2023-05-19T03:13:57.315Z,64.61
2023-05-19T03:16:25.221Z,64.31
2023-05-19T03:18:53.058Z,65.00
2023-05-19T03:21:21.432Z,64.39
2023-05-19T03:23:49.198Z,64.30
2023-05-19T03:26:16.922Z,64.42
2023-05-19T03:28:46.092Z,64.97
2023-05-19T03:31:16.658Z,65.28
2023-05-19T03:33:44.455Z,65.55
2023-05-19T03:36:12.671Z,65.89
2023-05-19T03:38:40.436Z,65.51
2023-05-19T03:41:08.185Z,65.31
2023-05-19T03:43:36.014Z,65.42
2023-05-19T03:46:05.220Z,65.10
2023-05-19T03:48:33.002Z,66.24
2023-05-19T03:51:01.476Z,65.58
2023-05-19T03:53:30.500Z,65.68
2023-05-19T03:55:59.418Z,65.37
2023-05-19T03:58:27.194Z,65.96
2023-05-19T04:00:55.389Z,65.67
2023-05-19T04:03:26.113Z,65.94
2023-05-19T04:05:54.181Z,66.03
2023-05-19T04:08:22.058Z,66.59
2023-05-19T04:10:49.802Z,66.13
2023-05-19T04:13:17.512Z,66.34
2023-05-19T04:15:46.098Z,66.09
2023-05-19T04:18:14.567Z,66.13
2023-05-19T04:20:43.688Z,66.04
2023-05-19T04:23:11.535Z,66.23
2023-05-19T04:25:40.828Z,65.98
2023-05-19T04:28:08.445Z,69.07
2023-05-19T04:30:37.022Z,65.95
2023-05-19T04:33:05.359Z,66.02
2023-05-19T04:35:33.249Z,65.24
2023-05-19T04:38:02.824Z,65.78
2023-05-19T04:40:31.297Z,65.40
2023-05-19T04:43:02.086Z,65.63
2023-05-19T04:45:30.139Z,65.40
2023-05-19T04:47:58.656Z,65.92
2023-05-19T04:50:26.484Z,65.77
2023-05-19T04:52:54.275Z,66.18
2023-05-19T04:55:23.507Z,64.81
2023-05-19T04:57:51.126Z,68.37
2023-05-19T05:00:20.574Z,65.17
2023-05-19T05:02:49.028Z,65.71
2023-05-19T05:05:17.040Z,65.26
2023-05-19T05:07:44.868Z,66.01
2023-05-19T05:10:12.730Z,66.27
2023-05-19T05:12:42.906Z,66.76
2023-05-19T05:15:12.094Z,65.41
2023-05-19T05:17:40.013Z,67.54
2023-05-19T05:20:08.978Z,65.26
2023-05-19T05:22:38.669Z,65.29
2023-05-19T05:25:07.715Z,65.08
2023-05-19T05:27:35.860Z,64.77
2023-05-19T05:30:05.733Z,64.61
2023-05-19T05:32:33.654Z,64.36
2023-05-19T05:35:01.514Z,64.48
2023-05-19T05:37:29.355Z,64.36
2023-05-19T05:39:57.124Z,63.43
2023-05-19T05:42:25.310Z,63.53
2023-05-19T05:44:54.223Z,63.31
2023-05-19T05:47:23.867Z,64.02
2023-05-19T05:49:53.551Z,63.44
2023-05-19T05:52:22.977Z,63.18
2023-05-19T05:54:50.825Z,64.54
2023-05-19T05:57:19.179Z,63.11
2023-05-19T05:59:47.232Z,62.71
2023-05-19T06:02:15.062Z,62.24
2023-05-19T06:04:45.110Z,62.73
2023-05-19T06:07:12.920Z,62.26
2023-05-19T06:09:40.820Z,61.59
2023-05-19T06:12:09.188Z,61.52
2023-05-19T06:14:36.967Z,61.96
2023-05-19T06:17:05.119Z,61.35
2023-05-19T06:19:33.278Z,61.70
2023-05-19T06:22:02.391Z,60.93
2023-05-19T06:24:29.978Z,61.36
2023-05-19T06:26:57.715Z,60.87
2023-05-19T06:29:25.538Z,60.83
2023-05-19T06:31:53.398Z,60.13
2023-05-19T06:34:21.317Z,60.73
2023-05-19T06:36:49.099Z,60.18
2023-05-19T06:39:18.252Z,59.83
2023-05-19T06:41:45.831Z,58.59
2023-05-19T06:44:13.616Z,59.08
2023-05-19T06:46:41.508Z,58.65
2023-05-19T06:49:09.303Z,57.46
2023-05-19T06:51:38.897Z,58.10
2023-05-19T06:54:06.745Z,57.54
2023-05-19T06:56:36.508Z,56.67
2023-05-19T06:59:04.429Z,56.80
2023-05-19T07:01:32.244Z,56.75
2023-05-19T07:04:00.184Z,57.11
2023-05-19T07:06:28.228Z,56.79
2023-05-19T07:08:56.056Z,56.97
2023-05-19T07:11:24.304Z,56.04
2023-05-19T07:13:53.939Z,55.79
2023-05-19T07:16:21.722Z,55.31
2023-05-19T07:18:49.500Z,55.74
2023-05-19T07:21:17.287Z,55.07
2023-05-19T07:23:45.122Z,55.19
2023-05-19T07:26:12.923Z,55.50
2023-05-19T07:28:42.550Z,54.10
2023-05-19T07:31:11.987Z,54.24
2023-05-19T07:33:39.814Z,54.16
2023-05-19T07:36:07.732Z,53.38
2023-05-19T07:38:35.765Z,52.59
2023-05-19T07:41:04.154Z,53.06
2023-05-19T07:43:31.970Z,53.24
2023-05-19T07:45:59.859Z,53.82
2023-05-19T07:48:29.586Z,50.55
2023-05-19T07:50:57.364Z,47.46
2023-05-19T07:53:25.152Z,45.49
2023-05-19T07:55:52.979Z,43.39
2023-05-19T07:58:20.742Z,42.95
2023-05-19T08:00:48.512Z,42.89
2023-05-19T08:03:18.489Z,41.05
2023-05-19T08:05:47.763Z,39.95
2023-05-19T08:08:16.967Z,36.58
2023-05-19T08:10:45.020Z,36.86
2023-05-19T08:13:12.805Z,37.78
2023-05-19T08:15:41.270Z,38.59
2023-05-19T08:18:09.244Z,38.57
2023-05-19T08:20:37.582Z,37.72
2023-05-19T08:23:06.719Z,37.73
2023-05-19T08:25:34.520Z,37.17
2023-05-19T08:28:02.322Z,37.34
2023-05-19T08:30:30.169Z,37.88
2023-05-19T08:32:58.215Z,37.44
2023-05-19T08:35:26.226Z,38.56
2023-05-19T08:37:54.052Z,37.06
2023-05-19T08:40:24.186Z,36.91
2023-05-19T08:42:51.943Z,35.71
2023-05-19T08:45:20.303Z,36.11
2023-05-19T08:47:48.092Z,34.75
2023-05-19T08:50:21.281Z,34.27
2023-05-19T08:52:53.462Z,34.21
2023-05-19T08:55:31.070Z,34.50
2023-05-19T08:57:59.224Z,35.74
2023-05-19T09:00:27.414Z,35.91
2023-05-19T09:03:01.205Z,37.50
2023-05-19T09:05:40.122Z,37.36
2023-05-19T09:08:08.205Z,37.49
2023-05-19T09:10:37.607Z,36.70
2023-05-19T09:13:06.614Z,36.19
2023-05-19T09:15:37.014Z,36.68
2023-05-19T09:18:08.626Z,37.05
2023-05-19T09:20:39.541Z,36.38
2023-05-19T09:23:07.814Z,37.19
2023-05-19T09:25:37.343Z,37.56
2023-05-19T09:28:05.343Z,37.08
2023-05-19T09:30:37.676Z,37.34
2023-05-19T09:33:13.363Z,37.83
2023-05-19T09:35:42.108Z,37.22
2023-05-19T09:38:09.726Z,35.25
2023-05-19T09:40:38.872Z,36.61
2023-05-19T09:43:09.180Z,38.08
2023-05-19T09:45:37.188Z,37.79
2023-05-19T09:48:05.723Z,36.84
2023-05-19T09:50:34.164Z,37.19
2023-05-19T09:53:04.152Z,37.78
2023-05-19T09:55:33.153Z,37.93
2023-05-19T09:58:04.894Z,37.60
2023-05-19T10:00:34.037Z,38.59
2023-05-19T10:03:02.821Z,38.39
2023-05-19T10:05:31.035Z,38.51
2023-05-19T10:07:58.975Z,37.25
2023-05-19T10:10:27.718Z,37.09
2023-05-19T10:12:55.445Z,37.31
2023-05-19T10:15:25.144Z,37.57
2023-05-19T10:17:53.700Z,36.17
2023-05-19T10:20:21.669Z,37.62
2023-05-19T10:22:49.666Z,37.55
2023-05-19T10:25:20.006Z,38.03
2023-05-19T10:27:58.076Z,38.05
2023-05-19T10:30:32.904Z,36.22
2023-05-19T10:33:01.752Z,37.16
2023-05-19T10:35:41.621Z,37.69
2023-05-19T10:38:16.388Z,35.62
2023-05-19T10:40:54.660Z,36.07
2023-05-19T10:43:27.133Z,37.21
2023-05-19T10:46:00.729Z,36.21
2023-05-19T10:48:28.530Z,37.24
2023-05-19T10:50:57.860Z,36.72
2023-05-19T10:53:32.191Z,34.82
2023-05-19T10:56:04.165Z,36.36
2023-05-19T10:58:40.149Z,35.85
2023-05-19T11:01:14.999Z,36.67
2023-05-19T11:03:48.033Z,38.09
2023-05-19T11:06:26.501Z,37.39
2023-05-19T11:08:55.980Z,36.70
2023-05-19T11:11:24.162Z,36.92
2023-05-19T11:13:52.620Z,37.01
2023-05-19T11:16:28.273Z,35.59
2023-05-19T11:18:56.824Z,36.43
2023-05-19T11:21:24.829Z,36.27
2023-05-19T11:23:53.763Z,36.92
2023-05-19T11:26:43.227Z,35.65
2023-05-19T11:29:11.601Z,36.84
2023-05-19T11:31:44.795Z,36.95
2023-05-19T11:34:15.323Z,37.06
2023-05-19T11:36:44.088Z,36.89
2023-05-19T11:39:11.792Z,36.34
2023-05-19T11:41:40.818Z,36.00
2023-05-19T11:44:11.559Z,36.71
2023-05-19T11:46:39.441Z,36.73
2023-05-19T11:49:08.671Z,35.80
2023-05-19T11:51:38.340Z,36.36
2023-05-19T11:54:06.526Z,36.03
2023-05-19T11:56:35.690Z,35.80
2023-05-19T11:59:03.596Z,35.82
2023-05-19T12:01:32.023Z,35.06
2023-05-19T12:03:59.947Z,34.58
2023-05-19T12:06:29.283Z,34.83
2023-05-19T12:08:57.151Z,35.32
2023-05-19T12:11:25.139Z,35.51
2023-05-19T12:13:54.650Z,35.30
2023-05-19T12:16:22.937Z,35.89
2023-05-19T12:18:50.878Z,34.83
2023-05-19T12:21:18.874Z,35.05
2023-05-19T12:23:51.511Z,34.94
2023-05-19T12:26:20.156Z,35.08
2023-05-19T12:28:47.924Z,34.91
2023-05-19T12:31:15.814Z,35.62
2023-05-19T12:33:43.666Z,34.82
2023-05-19T12:36:13.394Z,35.45
2023-05-19T12:38:42.386Z,35.38
2023-05-19T12:41:13.617Z,34.60
2023-05-19T12:43:42.397Z,34.68
2023-05-19T12:46:13.116Z,34.76
2023-05-19T12:48:44.613Z,33.66
2023-05-19T12:51:13.193Z,34.92
2023-05-19T12:53:41.059Z,34.45
2023-05-19T12:56:14.987Z,33.95
2023-05-19T12:58:43.231Z,34.71
2023-05-19T13:01:17.528Z,35.31
2023-05-19T13:03:46.023Z,34.52
2023-05-19T13:06:14.040Z,33.75
2023-05-19T13:08:47.928Z,34.66
2023-05-19T13:11:17.184Z,34.50
2023-05-19T13:13:45.430Z,34.26
2023-05-19T13:16:13.564Z,34.30
2023-05-19T13:18:41.426Z,34.63
2023-05-19T13:21:09.257Z,34.03
2023-05-19T13:23:37.713Z,34.49
2023-05-19T13:26:07.798Z,34.54
2023-05-19T13:28:37.037Z,34.55
2023-05-19T13:31:04.913Z,33.99
2023-05-19T13:33:33.328Z,33.58
2023-05-19T13:36:01.394Z,33.36
2023-05-19T13:38:30.398Z,34.01
2023-05-19T13:40:58.234Z,33.34
2023-05-19T13:43:25.982Z,33.99
2023-05-19T13:45:55.133Z,33.37
2023-05-19T13:48:22.972Z,32.56
2023-05-19T13:50:52.547Z,33.26
2023-05-19T13:53:20.304Z,33.07
2023-05-19T13:55:48.266Z,33.92
2023-05-19T13:58:17.023Z,33.13
2023-05-19T14:03:16.121Z,33.46
2023-05-19T14:05:44.231Z,31.86
2023-05-19T14:08:12.290Z,32.55
2023-05-19T14:10:40.103Z,33.07
2023-05-19T14:15:41.231Z,33.04
2023-05-19T14:18:09.066Z,33.02
2023-05-19T14:20:38.284Z,33.78
2023-05-19T14:23:06.138Z,32.74
2023-05-19T14:25:33.964Z,33.99
2023-05-19T14:28:02.438Z,34.34
2023-05-19T14:30:30.220Z,33.58
2023-05-19T14:33:01.232Z,34.23
2023-05-19T14:35:29.144Z,33.78
2023-05-19T14:37:58.244Z,34.21
2023-05-19T14:40:29.246Z,33.60
2023-05-19T14:42:58.334Z,33.68
2023-05-19T14:45:30.816Z,33.60
2023-05-19T14:48:00.768Z,33.76
2023-05-19T14:50:29.333Z,33.95
2023-05-19T14:52:58.935Z,33.49
2023-05-19T14:55:26.886Z,32.85
2023-05-19T14:57:54.698Z,31.98
2023-05-19T15:00:22.535Z,32.90
2023-05-19T15:02:50.489Z,32.70
2023-05-19T15:05:18.328Z,32.47
2023-05-19T15:07:46.411Z,32.74
2023-05-19T15:10:16.452Z,32.72
2023-05-19T15:12:44.455Z,33.28
2023-05-19T15:15:12.731Z,33.75
2023-05-19T15:17:41.070Z,33.09
2023-05-19T15:20:09.679Z,33.47
2023-05-19T15:22:37.520Z,33.66
2023-05-19T15:25:05.840Z,34.50
2023-05-19T15:27:35.559Z,34.60
2023-05-19T15:30:03.410Z,34.77
2023-05-19T15:32:31.345Z,34.39
2023-05-19T15:34:59.417Z,34.52
2023-05-19T15:37:31.589Z,34.89
2023-05-19T15:39:59.395Z,34.78
2023-05-19T15:42:27.298Z,35.07
2023-05-19T15:44:56.429Z,35.31
2023-05-19T15:47:24.344Z,35.50
2023-05-19T15:49:52.175Z,35.93
2023-05-19T15:52:19.903Z,36.11
2023-05-19T15:54:48.673Z,35.90
2023-05-19T15:57:16.467Z,35.49
2023-05-19T15:59:44.187Z,35.46
2023-05-19T16:02:13.355Z,35.33
2023-05-19T16:04:41.149Z,35.54
2023-05-19T16:07:08.920Z,35.92
2023-05-19T16:09:36.732Z,35.61
2023-05-19T16:12:04.933Z,35.54
2023-05-19T16:14:36.336Z,35.58
2023-05-19T16:17:04.705Z,36.04
2023-05-19T16:19:33.961Z,35.85
2023-05-19T16:22:01.864Z,36.18
2023-05-19T16:24:29.662Z,36.21
2023-05-19T16:26:57.444Z,36.43
2023-05-19T16:29:25.285Z,35.98
2023-05-19T16:31:53.197Z,36.36
2023-05-19T16:34:21.073Z,37.09
2023-05-19T16:36:50.393Z,36.11
2023-05-19T16:39:18.182Z,36.25
2023-05-19T16:41:46.074Z,36.72
2023-05-19T16:44:14.661Z,36.60
2023-05-19T16:46:42.680Z,36.53
2023-05-19T16:49:11.146Z,36.34
2023-05-19T16:51:39.186Z,36.08
2023-05-19T16:54:08.521Z,36.17
2023-05-19T16:56:36.554Z,36.63
2023-05-19T16:59:04.721Z,36.80
2023-05-19T17:01:32.572Z,36.44
2023-05-19T17:04:00.435Z,36.70
2023-05-19T17:06:28.335Z,36.77
2023-05-19T17:08:56.111Z,36.37
2023-05-19T17:11:25.299Z,36.69
2023-05-19T17:13:53.139Z,36.45
2023-05-19T17:16:21.377Z,36.65
2023-05-19T17:18:49.232Z,36.58
2023-05-19T17:21:17.638Z,37.11
2023-05-19T17:23:45.614Z,36.85
2023-05-19T17:26:13.477Z,36.66
2023-05-19T17:28:42.632Z,36.69
2023-05-19T17:31:11.868Z,36.54
2023-05-19T17:33:39.922Z,36.97
2023-05-19T17:36:08.668Z,36.39
2023-05-19T17:38:40.145Z,36.08
2023-05-19T17:41:10.707Z,36.42
2023-05-19T17:43:39.030Z,36.75
2023-05-19T17:46:08.284Z,36.35
2023-05-19T17:48:36.712Z,36.52
2023-05-19T17:51:05.863Z,36.54
2023-05-19T17:53:34.705Z,36.84
2023-05-19T17:56:04.211Z,37.30
2023-05-19T17:58:32.570Z,37.55
2023-05-19T18:01:00.748Z,37.39
2023-05-19T18:03:30.488Z,37.61
2023-05-19T18:05:58.544Z,37.73
2023-05-19T18:08:27.106Z,37.93
2023-05-19T18:10:56.332Z,38.00
2023-05-19T18:13:24.089Z,37.79
2023-05-19T18:15:52.644Z,38.19
2023-05-19T18:18:20.550Z,38.54
2023-05-19T18:20:51.966Z,38.49
2023-05-19T18:23:20.528Z,38.79
2023-05-19T18:25:53.341Z,38.60
2023-05-19T18:28:21.433Z,38.94
2023-05-19T18:30:49.250Z,39.32
2023-05-19T18:33:17.053Z,39.20
2023-05-19T18:35:44.845Z,39.35
2023-05-19T18:38:13.954Z,39.29
2023-05-19T18:40:44.106Z,39.61
2023-05-19T18:43:11.941Z,39.56
2023-05-19T18:45:39.765Z,39.67
2023-05-19T18:48:08.728Z,39.69
2023-05-19T18:50:37.115Z,39.58
2023-05-19T18:53:04.922Z,39.43
2023-05-19T18:55:35.442Z,39.95
2023-05-19T18:58:04.334Z,40.00
2023-05-19T19:00:32.835Z,40.22
2023-05-19T19:03:01.768Z,40.18
2023-05-19T19:05:29.889Z,40.55
2023-05-19T19:07:58.020Z,40.78
2023-05-19T19:10:25.830Z,40.79
2023-05-19T19:12:55.072Z,40.95
2023-05-19T19:15:22.938Z,40.92
2023-05-19T19:17:50.827Z,40.89
2023-05-19T19:20:18.917Z,41.13
2023-05-19T19:22:46.667Z,41.29
2023-05-19T19:25:14.705Z,41.24
2023-05-19T19:27:42.560Z,41.61
2023-05-19T19:30:14.106Z,41.46
2023-05-19T19:32:41.935Z,41.48
2023-05-19T19:35:10.560Z,41.96
2023-05-19T19:37:38.385Z,41.89
2023-05-19T19:40:07.591Z,41.88
2023-05-19T19:42:35.518Z,42.09
2023-05-19T19:45:03.369Z,42.48
2023-05-19T19:47:32.725Z,42.74
2023-05-19T19:50:02.522Z,42.74
2023-05-19T19:52:30.664Z,42.83
2023-05-19T19:54:58.479Z,42.93
2023-05-19T19:57:27.021Z,43.21
2023-05-19T19:59:57.473Z,43.34
2023-05-19T20:02:25.327Z,43.72
2023-05-19T20:04:55.051Z,43.60
2023-05-19T20:07:25.086Z,43.98
2023-05-19T20:09:52.889Z,44.07
2023-05-19T20:12:20.703Z,44.12
2023-05-19T20:14:50.602Z,44.34
2023-05-19T20:17:18.433Z,44.60
2023-05-19T20:19:46.193Z,44.92
2023-05-19T20:22:15.473Z,44.91
2023-05-19T20:24:43.260Z,45.22
2023-05-19T20:27:11.149Z,45.32
2023-05-19T20:29:38.929Z,45.82
2023-05-19T20:32:07.367Z,46.05
2023-05-19T20:34:35.195Z,46.55
2023-05-19T20:37:03.055Z,46.27
2023-05-19T20:39:32.227Z,46.00
2023-05-19T20:41:59.814Z,47.02
2023-05-19T20:44:27.656Z,46.75
2023-05-19T20:46:55.701Z,46.88
2023-05-19T20:49:23.594Z,46.87
2023-05-19T20:51:53.905Z,47.71
2023-05-19T20:54:21.852Z,47.69
2023-05-19T20:56:51.873Z,47.73
2023-05-19T20:59:19.658Z,47.93
2023-05-19T21:01:47.557Z,47.84
2023-05-19T21:04:15.500Z,48.28
2023-05-19T21:06:43.345Z,48.28
2023-05-19T21:09:11.410Z,48.69
2023-05-19T21:11:39.224Z,48.69
2023-05-19T21:14:09.299Z,48.77
2023-05-19T21:16:38.830Z,49.24
2023-05-19T21:19:07.375Z,49.18
2023-05-19T21:21:35.383Z,49.16
2023-05-19T21:24:03.168Z,49.03
2023-05-19T21:26:30.980Z,49.35
2023-05-19T21:28:58.796Z,49.90
2023-05-19T21:31:28.069Z,50.02
2023-05-19T21:33:55.930Z,50.33
2023-05-19T21:36:23.984Z,50.42
2023-05-19T21:38:51.860Z,50.22
2023-05-19T21:41:19.679Z,50.07
2023-05-19T21:43:47.392Z,50.76
2023-05-19T21:46:15.330Z,50.64
2023-05-19T21:48:44.511Z,50.90
2023-05-19T21:51:12.090Z,51.71
2023-05-19T21:53:39.890Z,50.55
2023-05-19T21:56:07.967Z,51.27
2023-05-19T21:58:37.724Z,51.13
2023-05-19T22:01:05.792Z,51.27
2023-05-19T22:03:33.624Z,51.45
2023-05-19T22:06:06.533Z,51.77
2023-05-19T22:08:34.324Z,51.85
2023-05-19T22:11:02.125Z,51.44
2023-05-19T22:13:30.298Z,51.51
2023-05-19T22:15:58.362Z,51.79
2023-05-19T22:18:26.288Z,52.07
2023-05-19T22:20:54.060Z,52.37
2023-05-19T22:23:23.253Z,52.03
2023-05-19T22:25:50.982Z,52.75
2023-05-19T22:28:18.772Z,52.32
2023-05-19T22:30:46.644Z,52.60
2023-05-19T22:33:14.733Z,52.89
2023-05-19T22:35:42.937Z,52.83
2023-05-19T22:38:11.778Z,52.48
2023-05-19T22:40:43.883Z,52.95
2023-05-19T22:43:11.663Z,53.47
2023-05-19T22:45:39.416Z,53.43
2023-05-19T22:48:07.637Z,53.79
2023-05-19T22:50:35.465Z,53.43
2023-05-19T22:53:03.241Z,54.15
2023-05-19T22:55:31.141Z,54.00
2023-05-19T22:58:00.363Z,53.67
2023-05-19T23:00:28.201Z,54.14
2023-05-19T23:02:56.122Z,54.51
2023-05-19T23:05:23.976Z,54.35
2023-05-19T23:07:51.804Z,54.48
2023-05-19T23:10:19.618Z,54.91
2023-05-19T23:12:47.449Z,54.19
2023-05-19T23:15:16.603Z,55.33
2023-05-19T23:17:44.560Z,54.78
2023-05-19T23:20:14.179Z,55.27
2023-05-19T23:22:42.152Z,54.67
2023-05-19T23:25:10.494Z,54.83
2023-05-19T23:27:38.374Z,55.14
2023-05-19T23:30:07.465Z,55.13
2023-05-19T23:32:36.725Z,55.26
2023-05-19T23:35:12.394Z,55.72
2023-05-19T23:37:40.143Z,54.70
2023-05-19T23:40:09.183Z,54.53
2023-05-19T23:42:37.653Z,54.78
2023-05-19T23:45:05.951Z,54.63
2023-05-19T23:47:33.733Z,54.69
2023-05-19T23:50:08.178Z,54.48
2023-05-19T23:52:35.960Z,54.72
2023-05-19T23:55:03.927Z,54.35
2023-05-19T23:57:31.740Z,54.81
